Time;durP1;ratioP1;P1;durP2;ratioP2;P2;SDS_P1;SDS_P2;PMS_P1;PMS_P2;Temp;Humidity;BMP_temperature;BMP_pressure;BME280_temperature;BME280_humidity;BME280_pressure;Samples;Min_cycle;Max_cycle;Signal;HPM_P1;HPM_P2
2023/03/01 00:01:57;;;;;;;;;;;;;;;11.36;37.29;100580.28;4444942;32;35199;-66
2023/03/01 00:04:24;;;;;;;;;;;;;;;10.68;38.43;100587.22;4441290;32;34178;-65
2023/03/01 00:06:52;;;;;;;;;;;;;;;10.88;38.21;100582.44;4447700;32;33898;-66
2023/03/01 00:09:19;;;;;;;;;;;;;;;10.90;38.14;100583.22;4441341;32;32076;-67
2023/03/01 00:11:46;;;;;;;;;;;;;;;10.63;39.32;100588.50;4448686;32;34362;-64
2023/03/01 00:14:16;;;;;;;;;;;;;;;10.63;39.03;100577.78;4438148;32;35519;-66
2023/03/01 00:16:44;;;;;;;;;;;;;;;10.98;38.40;100580.06;4441641;32;34125;-64
2023/03/01 00:19:12;;;;;;;;;;;;;;;10.78;38.80;100579.50;4445798;32;33503;-64
2023/03/01 00:21:40;;;;;;;;;;;;;;;10.88;38.69;100579.78;4441748;32;35151;-64
2023/03/01 00:24:07;;;;;;;;;;;;;;;11.07;38.24;100585.69;4449009;32;35275;-64
2023/03/01 00:26:34;;;;;;;;;;;;;;;11.24;37.99;100598.03;4447506;32;35184;-64
2023/03/01 00:29:02;;;;;;;;;;;;;;;10.86;38.80;100589.75;4443565;32;34503;-64
2023/03/01 00:31:30;;;;;;;;;;;;;;;11.23;37.96;100590.06;4445321;32;35163;-64
2023/03/01 00:34:03;;;;;;;;;;;;;;;10.44;39.43;100592.28;4452481;32;34067;-65
2023/03/01 00:36:32;;;;;;;;;;;;;;;9.94;40.73;100593.44;4446072;32;33839;-66
2023/03/01 00:39:00;;;;;;;;;;;;;;;10.54;39.48;100592.59;4450174;32;34733;-66
2023/03/01 00:41:27;;;;;;;;;;;;;;;11.00;38.61;100591.53;4448987;32;34279;-63
2023/03/01 00:43:54;;;;;;;;;;;;;;;10.96;38.41;100586.37;4445997;32;32328;-66
2023/03/01 00:46:23;;;;;;;;;;;;;;;10.69;38.89;100588.12;4451669;32;34060;-64
2023/03/01 00:48:50;;;;;;;;;;;;;;;10.21;39.89;100593.66;4437829;32;33255;-63
2023/03/01 00:51:19;;;;;;;;;;;;;;;10.63;39.45;100580.47;4446252;32;35833;-64
2023/03/01 00:53:47;;;;;;;;;;;;;;;10.79;38.89;100578.56;4442835;32;35015;-64
2023/03/01 00:56:14;;;;;;;;;;;;;;;11.09;38.30;100577.56;4438105;32;32580;-64
2023/03/01 00:58:43;;;;;;;;;;;;;;;11.24;37.86;100581.97;4438137;32;33328;-65
2023/03/01 01:01:16;;;;;;;;;;;;;;;11.24;37.86;100571.25;4439732;32;34281;-64
2023/03/01 01:03:44;;;;;;;;;;;;;;;11.28;37.61;100572.75;4444727;32;34130;-64
2023/03/01 01:06:22;;;;;;;;;;;;;;;11.21;37.85;100573.25;4449402;32;35188;-63
2023/03/01 01:08:49;;;;;;;;;;;;;;;11.27;37.67;100570.16;4444366;32;33190;-64
2023/03/01 01:11:17;;;;;;;;;;;;;;;11.31;37.54;100569.88;4445635;32;34183;-66
2023/03/01 01:13:44;;;;;;;;;;;;;;;11.16;38.23;100568.19;4446529;32;35079;-65
2023/03/01 01:16:12;;;;;;;;;;;;;;;10.69;39.24;100561.34;4447039;32;34103;-64
2023/03/01 01:18:40;;;;;;;;;;;;;;;11.03;38.37;100560.06;4440884;32;33555;-64
2023/03/01 01:21:09;;;;;;;;;;;;;;;10.73;39.22;100558.38;4441846;32;33877;-65
2023/03/01 01:23:36;;;;;;;;;;;;;;;10.82;39.04;100561.41;4446657;32;34933;-65
2023/03/01 01:26:05;;;;;;;;;;;;;;;11.09;38.29;100556.13;4451900;32;34665;-64
2023/03/01 01:28:32;;;;;;;;;;;;;;;10.52;39.25;100561.50;4441615;32;32986;-65
2023/03/01 01:30:59;;;;;;;;;;;;;;;10.91;38.82;100545.66;4443592;32;35200;-64
2023/03/01 01:33:27;;;;;;;;;;;;;;;10.67;39.13;100542.69;4439200;32;34163;-65
2023/03/01 01:35:54;;;;;;;;;;;;;;;10.50;39.57;100540.22;4437702;32;33919;-67
2023/03/01 01:38:21;;;;;;;;;;;;;;;10.06;40.84;100541.06;4443328;32;34485;-63
2023/03/01 01:40:50;;;;;;;;;;;;;;;9.56;42.10;100537.72;4439693;32;34632;-64
2023/03/01 01:43:28;;;;;;;;;;;;;;;9.63;43.10;100540.03;4451022;32;34133;-66
2023/03/01 01:45:57;;;;;;;;;;;;;;;9.62;41.75;100535.66;4445562;32;33963;-64
2023/03/01 01:48:24;;;;;;;;;;;;;;;9.83;41.60;100534.41;4438873;32;32140;-63
2023/03/01 01:50:54;;;;;;;;;;;;;;;9.01;43.18;100535.53;4446964;32;34606;-65
2023/03/01 01:53:22;;;;;;;;;;;;;;;9.62;41.91;100524.97;4447925;32;33903;-65
2023/03/01 01:55:52;;;;;;;;;;;;;;;10.03;40.95;100533.22;4436242;32;34061;-67
2023/03/01 01:58:19;;;;;;;;;;;;;;;10.43;40.09;100526.34;4441496;32;33018;-64
2023/03/01 02:00:47;;;;;;;;;;;;;;;10.55;39.92;100521.16;4444177;32;34704;-63
2023/03/01 02:03:17;;;;;;;;;;;;;;;9.94;41.86;100523.06;4443742;32;35143;-65
2023/03/01 02:05:50;;;;;;;;;;;;;;;10.53;39.80;100515.94;4439376;32;33984;-66
2023/03/01 02:08:22;;;;;;;;;;;;;;;10.63;39.62;100505.50;4446224;32;33444;-63
2023/03/01 02:10:50;;;;;;;;;;;;;;;10.68;39.71;100508.72;4445031;32;32851;-68
2023/03/01 02:13:17;;;;;;;;;;;;;;;10.58;39.82;100508.44;4443886;32;34421;-64
2023/03/01 02:15:44;;;;;;;;;;;;;;;9.82;41.88;100511.28;4449007;32;34083;-65
2023/03/01 02:18:14;;;;;;;;;;;;;;;9.89;41.35;100517.16;4443886;32;34485;-64
2023/03/01 02:20:49;;;;;;;;;;;;;;;10.22;40.64;100509.75;4439320;32;34663;-65
2023/03/01 02:23:17;;;;;;;;;;;;;;;10.13;40.80;100522.81;4438896;32;34251;-64
2023/03/01 02:25:51;;;;;;;;;;;;;;;10.30;40.65;100521.81;4449786;32;34364;-64
2023/03/01 02:28:21;;;;;;;;;;;;;;;9.37;42.60;100520.16;4447300;32;33307;-64
2023/03/01 02:33:36;;;;;;;;;;;;;;;10.48;40.19;100501.97;4437643;32;34197;-66
2023/03/01 02:36:05;;;;;;;;;;;;;;;10.20;40.89;100494.75;4439226;32;33905;-63
2023/03/01 02:38:32;;;;;;;;;;;;;;;10.47;40.39;100495.75;4449156;32;32163;-63
2023/03/01 02:40:59;;;;;;;;;;;;;;;10.77;39.62;100494.75;4441839;32;34931;-65
2023/03/01 02:43:27;;;;;;;;;;;;;;;10.83;39.39;100494.37;4453205;32;34186;-64
2023/03/01 02:45:57;;;;;;;;;;;;;;;10.96;39.32;100489.94;4445003;32;34907;-62
2023/03/01 02:48:24;;;;;;;;;;;;;;;10.89;39.37;100494.00;4442657;32;34538;-62
2023/03/01 02:51:01;;;;;;;;;;;;;;;10.16;40.97;100491.37;4438742;32;33972;-65
2023/03/01 02:53:28;;;;;;;;;;;;;;;10.73;39.45;100486.06;4439703;32;34152;-65
2023/03/01 02:55:56;;;;;;;;;;;;;;;10.77;39.55;100484.06;4453611;32;34240;-63
2023/03/01 02:58:23;;;;;;;;;;;;;;;10.43;40.77;100491.56;4450089;32;33270;-66
2023/03/01 03:00:51;;;;;;;;;;;;;;;10.66;39.94;100481.22;4441791;32;33979;-64
2023/03/01 03:03:19;;;;;;;;;;;;;;;10.46;40.88;100477.09;4438934;32;35521;-63
2023/03/01 03:05:47;;;;;;;;;;;;;;;10.28;41.73;100476.44;4444690;32;33942;-65
2023/03/01 03:08:23;;;;;;;;;;;;;;;10.57;40.56;100471.09;4437939;32;33341;-65
2023/03/01 03:10:51;;;;;;;;;;;;;;;10.48;40.89;100480.53;4443626;32;33492;-63
2023/03/01 03:13:19;;;;;;;;;;;;;;;10.77;40.07;100477.84;4451907;32;33044;-65
2023/03/01 03:15:46;;;;;;;;;;;;;;;10.77;40.10;100480.53;4439088;32;35201;-66
2023/03/01 03:18:14;;;;;;;;;;;;;;;10.75;40.03;100479.75;4438544;32;33912;-62
2023/03/01 03:20:42;;;;;;;;;;;;;;;10.37;41.39;100473.19;4440243;32;32934;-65
2023/03/01 03:23:09;;;;;;;;;;;;;;;10.41;40.89;100464.03;4437532;32;34121;-65
2023/03/01 03:25:37;;;;;;;;;;;;;;;10.25;41.29;100464.06;4438528;32;34110;-62
2023/03/01 03:28:09;;;;;;;;;;;;;;;10.31;41.16;100468.22;4438011;32;34256;-62
2023/03/01 03:30:38;;;;;;;;;;;;;;;10.57;40.60;100463.91;4451281;32;34152;-65
2023/03/01 03:33:06;;;;;;;;;;;;;;;10.37;41.17;100461.63;4440993;32;34256;-63
2023/03/01 03:35:34;;;;;;;;;;;;;;;10.45;41.58;100459.31;4438702;32;33910;-63
2023/03/01 03:38:05;;;;;;;;;;;;;;;10.34;41.20;100464.50;4437874;32;32974;-66
2023/03/01 03:40:34;;;;;;;;;;;;;;;9.68;42.65;100472.00;4448958;32;34670;-65
2023/03/01 03:43:02;;;;;;;;;;;;;;;10.13;42.23;100467.50;4442773;32;35321;-63
2023/03/01 03:45:29;;;;;;;;;;;;;;;10.25;41.69;100463.22;4451012;32;34133;-64
2023/03/01 03:47:57;;;;;;;;;;;;;;;10.72;40.71;100464.72;4441310;32;33369;-65
2023/03/01 03:50:24;;;;;;;;;;;;;;;10.78;40.62;100471.53;4439380;32;32892;-64
2023/03/01 03:52:51;;;;;;;;;;;;;;;10.66;40.92;100463.34;4442070;32;34151;-64
2023/03/01 03:55:19;;;;;;;;;;;;;;;10.61;41.16;100464.56;4438845;32;34156;-63
2023/03/01 03:57:51;;;;;;;;;;;;;;;10.55;41.58;100465.81;4437703;32;34316;-63
2023/03/01 04:00:19;;;;;;;;;;;;;;;10.39;41.48;100465.91;4445016;32;32661;-63
2023/03/01 04:02:47;;;;;;;;;;;;;;;9.93;42.80;100462.53;4445432;32;32627;-64
2023/03/01 04:05:15;;;;;;;;;;;;;;;10.59;40.98;100461.13;4438848;32;34775;-63
2023/03/01 04:07:42;;;;;;;;;;;;;;;10.31;41.87;100456.66;4446940;32;33062;-63
2023/03/01 04:10:11;;;;;;;;;;;;;;;10.14;42.18;100455.84;4449130;32;33809;-66
2023/03/01 04:12:38;;;;;;;;;;;;;;;9.64;43.43;100456.25;4448544;32;35293;-63
2023/03/01 04:15:12;;;;;;;;;;;;;;;9.94;42.61;100454.37;4453431;32;34600;-63
2023/03/01 04:17:41;;;;;;;;;;;;;;;10.26;41.88;100452.44;4440593;32;33350;-63
2023/03/01 04:20:10;;;;;;;;;;;;;;;9.67;43.54;100456.94;4438624;32;34257;-63
2023/03/01 04:22:38;;;;;;;;;;;;;;;9.55;43.67;100460.31;4447719;32;35475;-63
2023/03/01 04:25:06;;;;;;;;;;;;;;;9.22;44.30;100456.00;4454156;32;33233;-66
2023/03/01 04:27:34;;;;;;;;;;;;;;;9.39;44.16;100468.38;4450316;32;32015;-63
2023/03/01 04:30:01;;;;;;;;;;;;;;;9.09;45.13;100471.03;4444319;32;35205;-63
2023/03/01 04:32:29;;;;;;;;;;;;;;;9.27;44.91;100463.75;4442709;32;34479;-63
2023/03/01 04:34:56;;;;;;;;;;;;;;;9.75;43.43;100464.47;4454133;32;34875;-68
2023/03/01 04:37:27;;;;;;;;;;;;;;;9.88;43.44;100461.94;4449901;32;33028;-64
2023/03/01 04:39:54;;;;;;;;;;;;;;;9.94;42.75;100466.91;4447659;32;34889;-63
2023/03/01 04:42:21;;;;;;;;;;;;;;;9.23;44.42;100470.22;4445282;32;35986;-64
2023/03/01 04:44:51;;;;;;;;;;;;;;;9.01;45.69;100476.78;4450272;32;33836;-65
2023/03/01 04:47:18;;;;;;;;;;;;;;;9.25;45.11;100460.31;4451474;32;31448;-64
2023/03/01 04:49:45;;;;;;;;;;;;;;;9.29;44.48;100465.38;4454242;32;32929;-63
2023/03/01 04:52:12;;;;;;;;;;;;;;;8.96;45.24;100457.50;4452314;32;34290;-65
2023/03/01 04:54:40;;;;;;;;;;;;;;;8.55;45.71;100459.81;4443395;32;33926;-63
2023/03/01 04:57:07;;;;;;;;;;;;;;;8.17;46.86;100452.91;4450509;32;33447;-64
2023/03/01 04:59:35;;;;;;;;;;;;;;;8.84;46.10;100467.06;4438179;32;33328;-64
2023/03/01 05:02:03;;;;;;;;;;;;;;;8.81;45.90;100456.56;4435400;32;34330;-66
2023/03/01 05:04:30;;;;;;;;;;;;;;;9.19;44.74;100463.34;4448004;32;34050;-64
2023/03/01 05:06:58;;;;;;;;;;;;;;;8.66;45.88;100461.88;4447899;32;32387;-65
2023/03/01 05:09:26;;;;;;;;;;;;;;;9.13;44.35;100458.34;4453548;32;33933;-64
2023/03/01 05:11:53;;;;;;;;;;;;;;;9.57;43.33;100459.28;4451338;32;34923;-63
2023/03/01 05:14:20;;;;;;;;;;;;;;;9.75;42.46;100465.34;4450509;32;35101;-63
2023/03/01 05:16:48;;;;;;;;;;;;;;;10.00;41.97;100467.41;4449743;32;33216;-65
2023/03/01 05:19:15;;;;;;;;;;;;;;;10.08;41.77;100466.94;4436112;32;34066;-65
2023/03/01 05:22:25;;;;;;;;;;;;;;;10.04;41.71;100460.03;4439099;32;34176;-63
2023/03/01 05:24:34;;;;;;;;;;;;;;;9.60;42.48;100470.72;4445602;32;34324;-64
2023/03/01 05:27:01;;;;;;;;;;;;;;;9.87;42.46;100468.25;4447612;32;32979;-64
2023/03/01 05:29:29;;;;;;;;;;;;;;;9.76;42.96;100471.56;4442778;32;35122;-63
2023/03/01 05:32:00;;;;;;;;;;;;;;;10.03;42.00;100461.84;4439262;32;34176;-63
2023/03/01 05:34:29;;;;;;;;;;;;;;;9.83;42.25;100464.03;4448085;32;34238;-65
2023/03/01 05:36:57;;;;;;;;;;;;;;;10.12;41.65;100456.91;4442447;32;33699;-65
2023/03/01 05:39:25;;;;;;;;;;;;;;;9.59;42.75;100469.88;4440598;32;34969;-63
2023/03/01 05:41:53;;;;;;;;;;;;;;;10.00;42.21;100463.87;4441237;32;32778;-65
2023/03/01 05:44:20;;;;;;;;;;;;;;;9.65;42.72;100469.50;4452924;32;33835;-63
2023/03/01 05:46:48;;;;;;;;;;;;;;;9.74;42.45;100457.41;4453383;32;33340;-62
2023/03/01 05:49:15;;;;;;;;;;;;;;;9.59;43.73;100461.00;4454908;32;35315;-64
2023/03/01 05:51:43;;;;;;;;;;;;;;;10.10;41.89;100459.66;4441575;32;33080;-64
2023/03/01 05:54:10;;;;;;;;;;;;;;;10.12;41.93;100457.78;4447111;32;34151;-66
2023/03/01 05:56:38;;;;;;;;;;;;;;;10.28;41.67;100457.72;4447045;32;32172;-63
2023/03/01 05:59:05;;;;;;;;;;;;;;;10.16;42.48;100469.12;4440485;32;34038;-62
2023/03/01 06:01:33;;;;;;;;;;;;;;;9.56;43.73;100470.91;4438479;32;35787;-65
2023/03/01 06:04:00;;;;;;;;;;;;;;;9.82;42.99;100467.66;4446605;32;34678;-61
2023/03/01 06:06:28;;;;;;;;;;;;;;;9.41;44.05;100473.66;4442886;32;32131;-61
2023/03/01 06:08:55;;;;;;;;;;;;;;;8.97;45.06;100477.06;4443569;32;32673;-63
2023/03/01 06:11:22;;;;;;;;;;;;;;;9.53;44.09;100472.91;4444819;32;34391;-63
2023/03/01 06:13:50;;;;;;;;;;;;;;;9.85;43.18;100481.69;4444751;32;33765;-65
2023/03/01 06:16:17;;;;;;;;;;;;;;;8.97;44.40;100472.56;4452261;32;33077;-66
2023/03/01 06:18:44;;;;;;;;;;;;;;;9.61;44.19;100477.81;4451710;32;35454;-63
2023/03/01 06:21:12;;;;;;;;;;;;;;;9.80;43.21;100479.31;4445593;32;32880;-63
2023/03/01 06:23:39;;;;;;;;;;;;;;;9.87;42.83;100477.13;4448725;32;34321;-63
2023/03/01 06:26:07;;;;;;;;;;;;;;;9.39;44.05;100484.41;4445117;32;34170;-63
2023/03/01 06:28:35;;;;;;;;;;;;;;;9.90;42.78;100484.94;4445422;32;34158;-63
2023/03/01 06:31:02;;;;;;;;;;;;;;;10.06;42.64;100482.22;4439820;32;35507;-63
2023/03/01 06:33:30;;;;;;;;;;;;;;;9.97;43.37;100485.44;4446062;32;34015;-64
2023/03/01 06:35:57;;;;;;;;;;;;;;;10.34;42.22;100488.59;4444643;32;33279;-63
2023/03/01 06:38:24;;;;;;;;;;;;;;;10.48;41.91;100485.91;4443057;32;35762;-63
2023/03/01 06:40:52;;;;;;;;;;;;;;;10.79;40.85;100492.00;4449895;32;34195;-63
2023/03/01 06:43:20;;;;;;;;;;;;;;;10.29;41.94;100491.53;4441853;32;33735;-63
2023/03/01 06:45:47;;;;;;;;;;;;;;;9.99;42.35;100500.44;4453788;32;34176;-62
2023/03/01 06:48:15;;;;;;;;;;;;;;;9.44;44.43;100494.84;4443691;32;33795;-62
2023/03/01 06:50:42;;;;;;;;;;;;;;;9.17;44.60;100505.28;4439402;32;34002;-62
2023/03/01 06:53:09;;;;;;;;;;;;;;;9.61;43.38;100499.19;4440093;32;34923;-62
2023/03/01 06:55:36;;;;;;;;;;;;;;;9.32;44.38;100491.06;4437833;32;33350;-62
2023/03/01 06:58:04;;;;;;;;;;;;;;;8.20;46.99;100497.22;4439855;32;34302;-63
2023/03/01 07:00:31;;;;;;;;;;;;;;;8.03;47.96;100500.78;4443112;32;34357;-61
2023/03/01 07:02:59;;;;;;;;;;;;;;;8.44;47.28;100500.41;4444909;32;35109;-64
2023/03/01 07:05:27;;;;;;;;;;;;;;;8.57;46.77;100495.25;4439588;32;33411;-66
2023/03/01 07:07:55;;;;;;;;;;;;;;;8.44;47.19;100496.88;4442526;32;33913;-66
2023/03/01 07:10:22;;;;;;;;;;;;;;;9.02;45.58;100505.22;4438905;32;34923;-61
2023/03/01 07:12:50;;;;;;;;;;;;;;;9.09;44.62;100509.25;4437588;32;35219;-60
2023/03/01 07:15:17;;;;;;;;;;;;;;;9.14;44.66;100508.13;4451337;32;34442;-61
2023/03/01 07:17:47;;;;;;;;;;;;;;;8.68;46.01;100492.03;4451495;32;33803;-66
2023/03/01 07:20:15;;;;;;;;;;;;;;;8.62;45.87;100496.75;4449965;32;34126;-66
2023/03/01 07:22:42;;;;;;;;;;;;;;;8.42;46.15;100502.31;4443302;32;34102;-61
2023/03/01 07:25:09;;;;;;;;;;;;;;;8.15;47.40;100497.47;4453241;32;33657;-63
2023/03/01 07:27:37;;;;;;;;;;;;;;;8.27;46.93;100503.09;4440723;32;34176;-65
2023/03/01 07:30:04;;;;;;;;;;;;;;;8.38;46.63;100503.44;4438435;32;34327;-66
2023/03/01 07:32:31;;;;;;;;;;;;;;;8.62;46.14;100503.88;4444106;32;34163;-63
2023/03/01 07:34:59;;;;;;;;;;;;;;;8.31;46.82;100508.16;4448036;32;31630;-64
2023/03/01 07:37:26;;;;;;;;;;;;;;;8.26;46.70;100498.72;4443712;32;35277;-65
2023/03/01 07:39:54;;;;;;;;;;;;;;;8.43;45.89;100501.34;4446461;32;34193;-65
2023/03/01 07:42:21;;;;;;;;;;;;;;;7.94;47.01;100498.59;4446721;32;35213;-64
2023/03/01 07:44:48;;;;;;;;;;;;;;;8.07;47.76;100496.16;4445118;32;31839;-65
2023/03/01 07:47:15;;;;;;;;;;;;;;;8.44;46.75;100497.72;4448754;32;33503;-65
2023/03/01 07:49:42;;;;;;;;;;;;;;;8.83;45.31;100501.87;4438965;32;33459;-66
2023/03/01 07:52:11;;;;;;;;;;;;;;;8.82;44.96;100500.97;4441522;32;33746;-61
2023/03/01 07:54:38;;;;;;;;;;;;;;;8.30;46.96;100493.12;4448966;32;34018;-65
2023/03/01 07:57:05;;;;;;;;;;;;;;;8.87;45.66;100490.06;4440614;32;34310;-62
2023/03/01 07:59:33;;;;;;;;;;;;;;;8.98;44.89;100492.13;4438373;32;33902;-67
2023/03/01 08:02:00;;;;;;;;;;;;;;;8.16;46.41;100488.53;4446658;32;33982;-66
2023/03/01 08:04:28;;;;;;;;;;;;;;;8.13;47.34;100491.34;4446504;32;33416;-64
2023/03/01 08:06:55;;;;;;;;;;;;;;;8.81;45.85;100493.06;4444443;32;33614;-64
2023/03/01 08:09:22;;;;;;;;;;;;;;;8.94;44.73;100490.56;4450896;32;32991;-62
2023/03/01 08:11:50;;;;;;;;;;;;;;;9.16;44.36;100495.56;4438849;32;34212;-63
2023/03/01 08:14:17;;;;;;;;;;;;;;;8.67;46.39;100488.50;4453891;32;33782;-62
2023/03/01 08:16:44;;;;;;;;;;;;;;;8.95;44.62;100489.62;4444375;32;33979;-62
2023/03/01 08:19:11;;;;;;;;;;;;;;;8.88;44.75;100482.91;4444874;32;35189;-62
2023/03/01 08:21:39;;;;;;;;;;;;;;;9.13;44.44;100483.25;4446016;32;33759;-62
2023/03/01 08:24:06;;;;;;;;;;;;;;;9.58;44.11;100484.19;4453374;32;31957;-62
2023/03/01 08:26:34;;;;;;;;;;;;;;;9.89;43.57;100485.91;4451657;32;34116;-63
2023/03/01 08:29:01;;;;;;;;;;;;;;;9.87;42.33;100485.13;4448253;32;35467;-62
2023/03/01 08:31:32;;;;;;;;;;;;;;;9.54;43.29;100482.66;4444581;32;33936;-63
2023/03/01 08:34:00;;;;;;;;;;;;;;;9.06;43.85;100477.37;4452017;32;33199;-65
2023/03/01 08:36:31;;;;;;;;;;;;;;;8.96;44.11;100478.00;4451918;32;35237;-64
2023/03/01 08:38:59;;;;;;;;;;;;;;;9.12;43.78;100480.66;4446353;32;35398;-62
2023/03/01 08:41:27;;;;;;;;;;;;;;;9.27;43.72;100482.44;4452940;32;34192;-66
2023/03/01 08:43:58;;;;;;;;;;;;;;;9.70;42.72;100475.47;4444688;32;34217;-63
2023/03/01 08:46:29;;;;;;;;;;;;;;;9.66;43.16;100478.38;4446370;32;34332;-63
2023/03/01 08:48:57;;;;;;;;;;;;;;;9.89;42.29;100472.56;4439565;32;33071;-63
2023/03/01 08:51:25;;;;;;;;;;;;;;;10.38;40.90;100471.37;4439547;32;33672;-64
2023/03/01 08:53:52;;;;;;;;;;;;;;;10.70;41.64;100466.66;4442559;32;33496;-62
2023/03/01 08:56:19;;;;;;;;;;;;;;;10.77;40.19;100459.97;4442959;32;33825;-64
2023/03/01 08:58:47;;;;;;;;;;;;;;;11.33;39.01;100460.75;4441753;32;34271;-65
2023/03/01 09:01:15;;;;;;;;;;;;;;;11.30;39.55;100447.56;4440642;32;34359;-64
2023/03/01 09:03:43;;;;;;;;;;;;;;;11.12;39.42;100436.22;4440446;32;33372;-64
2023/03/01 09:06:10;;;;;;;;;;;;;;;11.03;39.92;100430.63;4438474;32;32873;-66
2023/03/01 09:08:38;;;;;;;;;;;;;;;11.09;40.23;100441.78;4438988;32;35368;-64
2023/03/01 09:11:06;;;;;;;;;;;;;;;10.60;41.17;100444.97;4437437;32;32547;-63
2023/03/01 09:13:33;;;;;;;;;;;;;;;11.01;40.20;100443.25;4449676;32;33352;-66
2023/03/01 09:16:01;;;;;;;;;;;;;;;11.65;38.98;100436.25;4424231;32;820267;-63
2023/03/01 09:18:28;;;;;;;;;;;;;;;11.80;38.56;100429.84;4440914;32;34573;-62
2023/03/01 09:21:06;;;;;;;;;;;;;;;11.91;38.91;100429.16;4438540;32;32880;-63
2023/03/01 09:23:36;;;;;;;;;;;;;;;11.73;39.27;100425.03;4448630;32;33365;-63
2023/03/01 09:26:03;;;;;;;;;;;;;;;11.15;40.08;100417.28;4446854;32;34215;-62
2023/03/01 09:28:30;;;;;;;;;;;;;;;11.76;39.02;100416.78;4438334;32;34204;-63
2023/03/01 09:30:59;;;;;;;;;;;;;;;12.05;38.23;100412.94;4442000;32;34651;-65
2023/03/01 09:33:27;;;;;;;;;;;;;;;11.98;38.09;100416.19;4440533;32;33320;-63
2023/03/01 09:36:01;;;;;;;;;;;;;;;12.58;37.00;100413.63;4447214;32;33956;-63
2023/03/01 09:38:29;;;;;;;;;;;;;;;12.27;37.78;100406.91;4449523;32;35221;-64
2023/03/01 09:40:56;;;;;;;;;;;;;;;11.98;38.59;100398.25;4438241;32;34005;-61
2023/03/01 09:43:30;;;;;;;;;;;;;;;12.57;37.65;100403.00;4435528;32;33278;-62
2023/03/01 09:46:05;;;;;;;;;;;;;;;11.99;37.87;100393.75;4442403;32;35171;-64
2023/03/01 09:48:33;;;;;;;;;;;;;;;11.15;39.84;100395.00;4440420;32;33061;-64
2023/03/01 09:51:01;;;;;;;;;;;;;;;11.83;38.38;100389.41;4436229;32;33002;-62
2023/03/01 09:53:31;;;;;;;;;;;;;;;12.29;37.63;100382.63;4436287;32;32988;-62
2023/03/01 09:55:59;;;;;;;;;;;;;;;11.76;38.91;100379.22;4438288;32;33484;-64
2023/03/01 09:58:29;;;;;;;;;;;;;;;11.73;38.87;100382.13;4426039;32;32682;-62
2023/03/01 10:00:57;;;;;;;;;;;;;;;12.29;38.00;100378.12;4436431;32;33963;-63
2023/03/01 10:03:35;;;;;;;;;;;;;;;12.78;36.70;100382.63;4441123;32;33338;-62
2023/03/01 10:06:05;;;;;;;;;;;;;;;12.82;36.75;100380.56;4447201;32;34060;-64
2023/03/01 10:08:53;;;;;;;;;;;;;;;12.54;36.96;100384.41;4437649;32;33952;-63
2023/03/01 10:11:28;;;;;;;;;;;;;;;12.53;37.37;100383.56;4441429;32;33855;-63
2023/03/01 10:14:01;;;;;;;;;;;;;;;12.57;36.82;100381.50;4436413;32;33546;-61
2023/03/01 10:17:07;;;;;;;;;;;;;;;12.92;36.49;100365.47;4438724;32;34527;-62
2023/03/01 10:19:44;;;;;;;;;;;;;;;13.37;35.84;100359.47;4397980;32;34064;-64
2023/03/01 10:22:31;;;;;;;;;;;;;;;11.82;39.11;100360.88;4404346;32;35065;-63
2023/03/01 10:24:59;;;;;;;;;;;;;;;12.99;36.79;100355.13;4433575;32;34241;-63
2023/03/01 10:27:34;;;;;;;;;;;;;;;12.73;37.32;100354.38;4437046;32;33975;-64
2023/03/01 10:30:20;;;;;;;;;;;;;;;12.56;37.44;100350.28;4450523;32;35293;-63
2023/03/01 10:32:50;;;;;;;;;;;;;;;12.74;37.25;100346.19;4446012;32;34028;-64
2023/03/01 10:35:28;;;;;;;;;;;;;;;12.71;37.23;100346.47;4437615;32;33553;-62
2023/03/01 10:38:05;;;;;;;;;;;;;;;13.43;36.20;100343.72;4446879;32;33655;-63
2023/03/01 10:40:33;;;;;;;;;;;;;;;12.53;38.22;100345.13;4439248;32;34308;-62
2023/03/01 10:43:04;;;;;;;;;;;;;;;12.42;38.02;100335.16;4445883;32;34100;-62
2023/03/01 10:45:35;;;;;;;;;;;;;;;13.02;37.19;100333.41;4450259;32;33326;-63
2023/03/01 10:48:09;;;;;;;;;;;;;;;11.76;38.79;100336.31;4446240;32;34676;-63
2023/03/01 10:50:37;;;;;;;;;;;;;;;12.70;37.45;100328.59;4447776;32;35443;-62
2023/03/01 10:53:16;;;;;;;;;;;;;;;12.58;37.46;100326.81;4444714;32;34828;-62
2023/03/01 10:55:43;;;;;;;;;;;;;;;12.82;37.32;100325.00;4441497;32;33472;-62
2023/03/01 10:58:14;;;;;;;;;;;;;;;12.68;37.49;100318.94;4446241;32;34097;-63
2023/03/01 11:01:01;;;;;;;;;;;;;;;12.73;37.23;100322.16;4437483;32;33207;-62
2023/03/01 11:03:32;;;;;;;;;;;;;;;12.90;37.21;100310.12;4442485;32;34331;-61
2023/03/01 11:05:59;;;;;;;;;;;;;;;13.20;37.02;100310.50;4446298;32;33287;-62
2023/03/01 11:08:33;;;;;;;;;;;;;;;12.74;37.36;100313.12;4436937;32;34304;-62
2023/03/01 11:11:06;;;;;;;;;;;;;;;12.80;37.78;100313.50;4447065;32;34610;-61
2023/03/01 11:13:33;;;;;;;;;;;;;;;13.40;37.22;100310.81;4438026;32;34272;-64
2023/03/01 11:16:05;;;;;;;;;;;;;;;13.37;36.89;100303.84;4448586;32;34486;-62
2023/03/01 11:18:33;;;;;;;;;;;;;;;12.79;38.15;100306.44;4447524;32;32906;-62
2023/03/01 11:21:13;;;;;;;;;;;;;;;13.25;36.90;100300.28;4442197;32;34324;-62
2023/03/01 11:23:40;;;;;;;;;;;;;;;13.67;36.50;100300.59;4440576;32;34279;-62
2023/03/01 11:26:08;;;;;;;;;;;;;;;13.79;35.49;100298.78;4444051;32;34473;-62
2023/03/01 11:28:38;;;;;;;;;;;;;;;13.94;35.40;100291.31;4450214;32;35095;-64
2023/03/01 11:31:08;;;;;;;;;;;;;;;13.88;35.53;100294.50;4440474;32;34126;-62
2023/03/01 11:33:48;;;;;;;;;;;;;;;13.91;35.65;100300.50;4439008;32;33186;-63
2023/03/01 11:36:35;;;;;;;;;;;;;;;13.83;35.61;100299.38;4444248;32;33817;-62
2023/03/01 11:39:03;;;;;;;;;;;;;;;13.31;36.26;100300.78;4444721;32;34319;-63
2023/03/01 11:41:31;;;;;;;;;;;;;;;13.75;35.60;100300.84;4442020;32;35283;-62
2023/03/01 11:44:01;;;;;;;;;;;;;;;13.74;36.07;100299.16;4444162;32;34118;-63
2023/03/01 11:46:31;;;;;;;;;;;;;;;13.85;35.97;100289.34;4439449;32;34324;-63
2023/03/01 11:49:08;;;;;;;;;;;;;;;13.58;36.69;100285.19;4446787;32;34187;-63
2023/03/01 11:51:39;;;;;;;;;;;;;;;13.77;36.90;100286.41;4440903;32;34505;-64
2023/03/01 11:54:10;;;;;;;;;;;;;;;14.54;34.50;100276.56;4442522;32;33371;-65
2023/03/01 11:56:44;;;;;;;;;;;;;;;14.33;34.49;100281.00;4445207;32;34787;-62
2023/03/01 11:59:29;;;;;;;;;;;;;;;13.23;36.20;100283.38;4447086;32;35445;-62
2023/03/01 12:01:57;;;;;;;;;;;;;;;13.61;35.50;100281.37;4444241;32;34196;-66
2023/03/01 12:04:24;;;;;;;;;;;;;;;13.55;36.21;100265.72;4440596;32;33815;-62
2023/03/01 12:07:01;;;;;;;;;;;;;;;13.97;35.35;100277.63;4446031;32;33508;-61
2023/03/01 12:09:34;;;;;;;;;;;;;;;13.80;36.40;100272.72;4447227;32;34095;-62
2023/03/01 12:12:01;;;;;;;;;;;;;;;14.44;35.05;100259.41;4446863;32;33055;-62
2023/03/01 12:14:34;;;;;;;;;;;;;;;14.82;34.48;100255.38;4446543;32;34706;-64
2023/03/01 12:17:06;;;;;;;;;;;;;;;14.68;35.06;100249.31;4445238;32;36101;-62
2023/03/01 12:19:36;;;;;;;;;;;;;;;14.89;34.61;100241.28;4443796;32;34326;-63
2023/03/01 12:22:04;;;;;;;;;;;;;;;15.05;34.68;100235.41;4444505;32;33203;-61
2023/03/01 12:24:50;;;;;;;;;;;;;;;15.11;34.03;100228.62;4446159;32;33921;-62
2023/03/01 12:27:20;;;;;;;;;;;;;;;14.97;33.87;100229.84;4444383;32;33015;-65
2023/03/01 12:29:50;;;;;;;;;;;;;;;15.43;33.58;100220.44;4446320;32;34178;-61
2023/03/01 12:32:21;;;;;;;;;;;;;;;15.47;33.04;100223.72;4449464;32;35522;-61
2023/03/01 12:35:23;;;;;;;;;;;;;;;15.55;33.51;100224.78;4440587;32;34248;-61
2023/03/01 12:37:51;;;;;;;;;;;;;;;15.73;33.34;100218.75;4382002;32;33465;-63
2023/03/01 12:40:37;;;;;;;;;;;;;;;15.79;32.53;100223.63;4433657;32;35234;-63
2023/03/01 12:43:13;;;;;;;;;;;;;;;15.73;32.45;100221.47;4448259;32;34269;-61
2023/03/01 12:45:59;;;;;;;;;;;;;;;15.14;33.32;100221.13;4452200;32;34262;-63
2023/03/01 12:48:30;;;;;;;;;;;;;;;14.90;34.24;100209.78;4440958;32;33459;-64
2023/03/01 12:50:59;;;;;;;;;;;;;;;14.51;34.87;100206.78;4441717;32;35040;-63
2023/03/01 12:53:27;;;;;;;;;;;;;;;14.73;34.80;100210.34;4450408;32;33973;-64
2023/03/01 12:56:06;;;;;;;;;;;;;;;14.21;35.59;100221.75;4446925;32;34201;-61